sensor_id;sensor_type;location;lat;lon;timestamp;P1;durP1;ratioP1;P2;durP2;ratioP2
65461;SDS011;53236;43.666;18.444;2023-08-31T00:02:13;2.67;;;1.20;;
65461;SDS011;53236;43.666;18.444;2023-08-31T00:04:38;3.47;;;1.50;;
65461;SDS011;53236;43.666;18.444;2023-08-31T00:07:04;3.53;;;1.30;;
65461;SDS011;53236;43.666;18.444;2023-08-31T00:09:30;6.13;;;1.60;;
65461;SDS011;53236;43.666;18.444;2023-08-31T00:11:56;5.10;;;1.80;;
65461;SDS011;53236;43.666;18.444;2023-08-31T00:14:22;5.20;;;1.30;;
65461;SDS011;53236;43.666;18.444;2023-08-31T00:16:49;3.53;;;1.33;;
65461;SDS011;53236;43.666;18.444;2023-08-31T00:19:15;3.43;;;1.50;;
65461;SDS011;53236;43.666;18.444;2023-08-31T00:21:41;4.30;;;1.40;;
65461;SDS011;53236;43.666;18.444;2023-08-31T00:24:07;6.00;;;1.47;;
65461;SDS011;53236;43.666;18.444;2023-08-31T00:26:35;3.50;;;1.30;;
65461;SDS011;53236;43.666;18.444;2023-08-31T00:29:05;5.33;;;1.50;;
65461;SDS011;53236;43.666;18.444;2023-08-31T00:31:32;4.43;;;1.40;;
65461;SDS011;53236;43.666;18.444;2023-08-31T00:33:59;8.40;;;1.60;;
65461;SDS011;53236;43.666;18.444;2023-08-31T00:36:32;3.53;;;1.30;;
65461;SDS011;53236;43.666;18.444;2023-08-31T00:38:58;4.33;;;1.50;;
65461;SDS011;53236;43.666;18.444;2023-08-31T00:41:31;3.20;;;1.10;;
65461;SDS011;53236;43.666;18.444;2023-08-31T00:43:57;4.37;;;1.20;;
65461;SDS011;53236;43.666;18.444;2023-08-31T00:46:23;3.17;;;1.20;;
65461;SDS011;53236;43.666;18.444;2023-08-31T00:48:49;5.13;;;1.37;;
65461;SDS011;53236;43.666;18.444;2023-08-31T00:51:15;2.87;;;1.03;;
65461;SDS011;53236;43.666;18.444;2023-08-31T00:53:42;2.97;;;1.40;;
65461;SDS011;53236;43.666;18.444;2023-08-31T00:56:08;4.33;;;1.47;;
65461;SDS011;53236;43.666;18.444;2023-08-31T00:58:34;4.60;;;1.60;;
65461;SDS011;53236;43.666;18.444;2023-08-31T01:03:35;2.60;;;1.47;;
65461;SDS011;53236;43.666;18.444;2023-08-31T01:14:11;4.73;;;1.37;;
65461;SDS011;53236;43.666;18.444;2023-08-31T01:16:41;3.53;;;1.40;;
65461;SDS011;53236;43.666;18.444;2023-08-31T01:19:17;4.73;;;1.00;;
65461;SDS011;53236;43.666;18.444;2023-08-31T01:22:09;6.40;;;1.40;;
65461;SDS011;53236;43.666;18.444;2023-08-31T01:24:39;6.07;;;1.40;;
65461;SDS011;53236;43.666;18.444;2023-08-31T01:27:06;3.40;;;1.63;;
65461;SDS011;53236;43.666;18.444;2023-08-31T01:29:32;3.40;;;1.37;;
65461;SDS011;53236;43.666;18.444;2023-08-31T01:31:58;4.93;;;1.30;;
65461;SDS011;53236;43.666;18.444;2023-08-31T01:34:23;4.23;;;1.20;;
65461;SDS011;53236;43.666;18.444;2023-08-31T01:36:53;2.43;;;1.30;;
65461;SDS011;53236;43.666;18.444;2023-08-31T01:39:27;2.43;;;1.10;;
65461;SDS011;53236;43.666;18.444;2023-08-31T01:42:06;2.87;;;1.23;;
65461;SDS011;53236;43.666;18.444;2023-08-31T01:44:34;4.37;;;1.63;;
65461;SDS011;53236;43.666;18.444;2023-08-31T01:47:02;3.53;;;1.43;;
65461;SDS011;53236;43.666;18.444;2023-08-31T01:49:35;4.33;;;1.50;;
65461;SDS011;53236;43.666;18.444;2023-08-31T01:52:02;3.70;;;1.50;;
65461;SDS011;53236;43.666;18.444;2023-08-31T01:54:28;2.87;;;1.30;;
65461;SDS011;53236;43.666;18.444;2023-08-31T01:56:54;2.37;;;1.30;;
65461;SDS011;53236;43.666;18.444;2023-08-31T01:59:19;3.67;;;1.30;;
65461;SDS011;53236;43.666;18.444;2023-08-31T02:01:45;8.70;;;1.67;;
65461;SDS011;53236;43.666;18.444;2023-08-31T02:04:11;2.60;;;1.33;;
65461;SDS011;53236;43.666;18.444;2023-08-31T02:06:37;4.43;;;1.20;;
65461;SDS011;53236;43.666;18.444;2023-08-31T02:09:03;2.70;;;1.10;;
65461;SDS011;53236;43.666;18.444;2023-08-31T02:11:29;2.57;;;1.30;;
65461;SDS011;53236;43.666;18.444;2023-08-31T02:13:56;3.53;;;1.13;;
65461;SDS011;53236;43.666;18.444;2023-08-31T02:16:23;3.67;;;1.20;;
65461;SDS011;53236;43.666;18.444;2023-08-31T02:18:49;1.87;;;1.00;;
65461;SDS011;53236;43.666;18.444;2023-08-31T02:21:14;1.87;;;1.10;;
65461;SDS011;53236;43.666;18.444;2023-08-31T02:23:40;2.37;;;1.23;;
65461;SDS011;53236;43.666;18.444;2023-08-31T02:26:06;3.60;;;1.30;;
65461;SDS011;53236;43.666;18.444;2023-08-31T02:28:32;4.03;;;1.47;;
65461;SDS011;53236;43.666;18.444;2023-08-31T02:30:58;3.63;;;1.10;;
65461;SDS011;53236;43.666;18.444;2023-08-31T02:33:24;2.73;;;1.10;;
65461;SDS011;53236;43.666;18.444;2023-08-31T02:35:50;2.47;;;1.20;;
65461;SDS011;53236;43.666;18.444;2023-08-31T02:38:16;4.53;;;1.43;;
65461;SDS011;53236;43.666;18.444;2023-08-31T02:40:41;4.60;;;1.80;;
65461;SDS011;53236;43.666;18.444;2023-08-31T02:43:10;3.40;;;1.27;;
65461;SDS011;53236;43.666;18.444;2023-08-31T02:45:36;3.40;;;1.47;;
65461;SDS011;53236;43.666;18.444;2023-08-31T02:48:02;4.10;;;1.50;;
65461;SDS011;53236;43.666;18.444;2023-08-31T02:50:28;4.67;;;1.40;;
65461;SDS011;53236;43.666;18.444;2023-08-31T02:52:54;6.87;;;1.20;;
65461;SDS011;53236;43.666;18.444;2023-08-31T02:55:20;2.97;;;1.30;;
65461;SDS011;53236;43.666;18.444;2023-08-31T02:57:46;4.37;;;1.30;;
65461;SDS011;53236;43.666;18.444;2023-08-31T03:00:12;4.13;;;1.53;;
65461;SDS011;53236;43.666;18.444;2023-08-31T03:02:38;5.33;;;1.50;;
65461;SDS011;53236;43.666;18.444;2023-08-31T03:05:04;5.07;;;1.70;;
65461;SDS011;53236;43.666;18.444;2023-08-31T03:07:30;5.90;;;1.53;;
65461;SDS011;53236;43.666;18.444;2023-08-31T03:09:56;4.17;;;1.10;;
65461;SDS011;53236;43.666;18.444;2023-08-31T03:12:22;4.13;;;1.30;;
65461;SDS011;53236;43.666;18.444;2023-08-31T03:14:48;2.67;;;1.50;;
65461;SDS011;53236;43.666;18.444;2023-08-31T03:17:14;5.50;;;1.50;;
65461;SDS011;53236;43.666;18.444;2023-08-31T03:19:39;5.03;;;1.47;;
65461;SDS011;53236;43.666;18.444;2023-08-31T03:22:06;2.27;;;1.13;;
65461;SDS011;53236;43.666;18.444;2023-08-31T03:24:32;2.83;;;1.30;;
65461;SDS011;53236;43.666;18.444;2023-08-31T03:26:58;2.77;;;1.37;;
65461;SDS011;53236;43.666;18.444;2023-08-31T03:29:24;4.53;;;1.30;;
65461;SDS011;53236;43.666;18.444;2023-08-31T03:31:50;6.07;;;1.67;;
65461;SDS011;53236;43.666;18.444;2023-08-31T03:34:15;4.40;;;1.30;;
65461;SDS011;53236;43.666;18.444;2023-08-31T03:36:41;4.53;;;1.30;;
65461;SDS011;53236;43.666;18.444;2023-08-31T03:39:07;5.07;;;1.70;;
65461;SDS011;53236;43.666;18.444;2023-08-31T03:41:34;7.47;;;1.80;;
65461;SDS011;53236;43.666;18.444;2023-08-31T03:44:00;3.33;;;1.67;;
65461;SDS011;53236;43.666;18.444;2023-08-31T03:46:26;3.70;;;1.30;;
65461;SDS011;53236;43.666;18.444;2023-08-31T03:48:52;4.07;;;1.40;;
65461;SDS011;53236;43.666;18.444;2023-08-31T03:51:18;2.10;;;1.50;;
65461;SDS011;53236;43.666;18.444;2023-08-31T03:53:44;5.27;;;1.83;;
65461;SDS011;53236;43.666;18.444;2023-08-31T03:56:10;2.37;;;1.33;;
65461;SDS011;53236;43.666;18.444;2023-08-31T03:58:36;4.10;;;1.60;;
65461;SDS011;53236;43.666;18.444;2023-08-31T04:01:02;2.33;;;1.40;;
65461;SDS011;53236;43.666;18.444;2023-08-31T04:03:28;4.83;;;1.17;;
65461;SDS011;53236;43.666;18.444;2023-08-31T04:05:54;3.30;;;1.70;;
65461;SDS011;53236;43.666;18.444;2023-08-31T04:08:21;3.30;;;1.30;;
65461;SDS011;53236;43.666;18.444;2023-08-31T04:10:46;2.63;;;1.40;;
65461;SDS011;53236;43.666;18.444;2023-08-31T04:13:12;2.93;;;1.40;;
65461;SDS011;53236;43.666;18.444;2023-08-31T04:15:38;3.43;;;1.43;;
65461;SDS011;53236;43.666;18.444;2023-08-31T04:18:04;2.43;;;1.17;;
65461;SDS011;53236;43.666;18.444;2023-08-31T04:20:30;4.50;;;1.33;;
65461;SDS011;53236;43.666;18.444;2023-08-31T04:22:56;3.30;;;1.33;;
65461;SDS011;53236;43.666;18.444;2023-08-31T04:25:22;3.50;;;1.60;;
65461;SDS011;53236;43.666;18.444;2023-08-31T04:27:47;2.37;;;1.50;;
65461;SDS011;53236;43.666;18.444;2023-08-31T04:30:13;5.03;;;1.63;;
65461;SDS011;53236;43.666;18.444;2023-08-31T04:32:40;3.50;;;1.53;;
65461;SDS011;53236;43.666;18.444;2023-08-31T04:35:06;4.80;;;1.47;;
65461;SDS011;53236;43.666;18.444;2023-08-31T04:37:32;2.80;;;1.37;;
65461;SDS011;53236;43.666;18.444;2023-08-31T04:39:58;2.27;;;1.33;;
65461;SDS011;53236;43.666;18.444;2023-08-31T04:42:24;3.03;;;1.67;;
65461;SDS011;53236;43.666;18.444;2023-08-31T04:44:50;3.40;;;1.50;;
65461;SDS011;53236;43.666;18.444;2023-08-31T04:47:15;4.43;;;1.80;;
65461;SDS011;53236;43.666;18.444;2023-08-31T04:49:41;6.53;;;1.57;;
65461;SDS011;53236;43.666;18.444;2023-08-31T04:52:07;5.10;;;1.40;;
65461;SDS011;53236;43.666;18.444;2023-08-31T04:54:33;2.77;;;1.47;;
65461;SDS011;53236;43.666;18.444;2023-08-31T04:56:59;4.17;;;1.23;;
65461;SDS011;53236;43.666;18.444;2023-08-31T04:59:25;2.57;;;1.27;;
65461;SDS011;53236;43.666;18.444;2023-08-31T05:01:50;4.33;;;1.73;;
65461;SDS011;53236;43.666;18.444;2023-08-31T05:04:16;3.93;;;1.57;;
65461;SDS011;53236;43.666;18.444;2023-08-31T05:06:42;3.33;;;1.40;;
65461;SDS011;53236;43.666;18.444;2023-08-31T05:09:07;6.17;;;3.10;;
65461;SDS011;53236;43.666;18.444;2023-08-31T05:11:35;10.33;;;5.43;;
65461;SDS011;53236;43.666;18.444;2023-08-31T05:14:00;32.07;;;25.87;;
65461;SDS011;53236;43.666;18.444;2023-08-31T05:16:26;11.87;;;8.87;;
65461;SDS011;53236;43.666;18.444;2023-08-31T05:18:52;11.80;;;8.73;;
65461;SDS011;53236;43.666;18.444;2023-08-31T05:21:17;18.80;;;11.97;;
65461;SDS011;53236;43.666;18.444;2023-08-31T05:23:43;16.90;;;8.07;;
65461;SDS011;53236;43.666;18.444;2023-08-31T05:26:09;11.20;;;7.70;;
65461;SDS011;53236;43.666;18.444;2023-08-31T05:42:34;12.73;;;8.85;;
65461;SDS011;53236;43.666;18.444;2023-08-31T05:45:00;15.93;;;8.70;;
65461;SDS011;53236;43.666;18.444;2023-08-31T05:47:26;9.00;;;7.13;;
65461;SDS011;53236;43.666;18.444;2023-08-31T05:49:51;10.80;;;8.23;;
65461;SDS011;53236;43.666;18.444;2023-08-31T05:52:17;16.43;;;11.87;;
65461;SDS011;53236;43.666;18.444;2023-08-31T05:54:43;12.63;;;10.20;;
65461;SDS011;53236;43.666;18.444;2023-08-31T05:57:09;12.83;;;9.73;;
65461;SDS011;53236;43.666;18.444;2023-08-31T05:59:34;17.00;;;10.63;;
65461;SDS011;53236;43.666;18.444;2023-08-31T06:02:00;23.13;;;10.93;;
65461;SDS011;53236;43.666;18.444;2023-08-31T06:04:26;12.90;;;8.87;;
65461;SDS011;53236;43.666;18.444;2023-08-31T06:06:51;12.30;;;8.43;;
65461;SDS011;53236;43.666;18.444;2023-08-31T06:09:19;12.47;;;8.70;;
65461;SDS011;53236;43.666;18.444;2023-08-31T06:11:45;12.70;;;7.60;;
65461;SDS011;53236;43.666;18.444;2023-08-31T06:14:11;9.87;;;7.80;;
65461;SDS011;53236;43.666;18.444;2023-08-31T06:16:37;14.63;;;8.17;;
65461;SDS011;53236;43.666;18.444;2023-08-31T06:19:02;13.37;;;8.30;;
65461;SDS011;53236;43.666;18.444;2023-08-31T06:21:28;10.10;;;7.10;;
65461;SDS011;53236;43.666;18.444;2023-08-31T06:23:54;12.27;;;6.77;;
65461;SDS011;53236;43.666;18.444;2023-08-31T06:26:20;9.83;;;7.30;;
65461;SDS011;53236;43.666;18.444;2023-08-31T06:28:45;12.17;;;8.03;;
65461;SDS011;53236;43.666;18.444;2023-08-31T06:31:11;15.27;;;7.47;;
65461;SDS011;53236;43.666;18.444;2023-08-31T06:33:37;11.33;;;7.40;;
65461;SDS011;53236;43.666;18.444;2023-08-31T06:36:03;9.90;;;5.93;;
65461;SDS011;53236;43.666;18.444;2023-08-31T06:38:28;11.03;;;7.67;;
65461;SDS011;53236;43.666;18.444;2023-08-31T06:40:54;10.07;;;6.93;;
65461;SDS011;53236;43.666;18.444;2023-08-31T06:43:24;7.27;;;5.73;;
65461;SDS011;53236;43.666;18.444;2023-08-31T06:45:52;7.53;;;4.45;;
65461;SDS011;53236;43.666;18.444;2023-08-31T06:48:18;8.18;;;5.53;;
65461;SDS011;53236;43.666;18.444;2023-08-31T06:50:44;7.40;;;5.05;;
65461;SDS011;53236;43.666;18.444;2023-08-31T06:53:09;8.18;;;4.47;;
65461;SDS011;53236;43.666;18.444;2023-08-31T06:55:35;7.72;;;5.15;;
65461;SDS011;53236;43.666;18.444;2023-08-31T06:58:01;8.35;;;5.32;;
65461;SDS011;53236;43.666;18.444;2023-08-31T07:00:30;10.05;;;5.82;;
65461;SDS011;53236;43.666;18.444;2023-08-31T07:02:57;7.78;;;5.22;;
65461;SDS011;53236;43.666;18.444;2023-08-31T07:05:24;15.43;;;5.28;;
65461;SDS011;53236;43.666;18.444;2023-08-31T07:07:54;10.07;;;5.22;;
65461;SDS011;53236;43.666;18.444;2023-08-31T07:10:20;7.80;;;5.03;;
65461;SDS011;53236;43.666;18.444;2023-08-31T07:12:46;7.50;;;5.30;;
65461;SDS011;53236;43.666;18.444;2023-08-31T07:15:12;6.72;;;4.55;;
65461;SDS011;53236;43.666;18.444;2023-08-31T07:17:38;6.70;;;4.90;;
65461;SDS011;53236;43.666;18.444;2023-08-31T07:20:04;7.38;;;4.60;;
65461;SDS011;53236;43.666;18.444;2023-08-31T07:22:34;7.43;;;5.07;;
65461;SDS011;53236;43.666;18.444;2023-08-31T07:25:00;8.93;;;4.30;;
65461;SDS011;53236;43.666;18.444;2023-08-31T07:27:26;8.45;;;4.60;;
65461;SDS011;53236;43.666;18.444;2023-08-31T07:29:54;5.25;;;3.50;;
65461;SDS011;53236;43.666;18.444;2023-08-31T07:32:20;6.65;;;3.45;;
65461;SDS011;53236;43.666;18.444;2023-08-31T07:34:45;3.53;;;2.80;;
65461;SDS011;53236;43.666;18.444;2023-08-31T07:37:11;3.88;;;2.35;;
65461;SDS011;53236;43.666;18.444;2023-08-31T07:39:37;6.30;;;2.72;;
65461;SDS011;53236;43.666;18.444;2023-08-31T07:42:04;4.10;;;2.67;;
65461;SDS011;53236;43.666;18.444;2023-08-31T07:44:30;4.13;;;2.78;;
65461;SDS011;53236;43.666;18.444;2023-08-31T07:46:56;4.78;;;2.78;;
65461;SDS011;53236;43.666;18.444;2023-08-31T07:49:22;5.45;;;2.80;;
65461;SDS011;53236;43.666;18.444;2023-08-31T07:51:48;4.53;;;2.67;;
65461;SDS011;53236;43.666;18.444;2023-08-31T07:54:23;5.30;;;2.60;;
65461;SDS011;53236;43.666;18.444;2023-08-31T07:56:49;7.93;;;2.60;;
65461;SDS011;53236;43.666;18.444;2023-08-31T07:59:15;4.82;;;2.67;;
65461;SDS011;53236;43.666;18.444;2023-08-31T08:01:42;4.28;;;2.05;;
65461;SDS011;53236;43.666;18.444;2023-08-31T08:04:08;6.55;;;2.55;;
65461;SDS011;53236;43.666;18.444;2023-08-31T08:06:34;4.18;;;2.50;;
65461;SDS011;53236;43.666;18.444;2023-08-31T08:08:59;6.32;;;2.45;;
65461;SDS011;53236;43.666;18.444;2023-08-31T08:11:25;4.05;;;2.60;;
65461;SDS011;53236;43.666;18.444;2023-08-31T08:13:51;6.50;;;3.20;;
65461;SDS011;53236;43.666;18.444;2023-08-31T08:16:17;6.63;;;3.33;;
65461;SDS011;53236;43.666;18.444;2023-08-31T08:18:42;5.18;;;2.92;;
65461;SDS011;53236;43.666;18.444;2023-08-31T08:21:08;6.70;;;2.90;;
65461;SDS011;53236;43.666;18.444;2023-08-31T08:23:34;4.55;;;2.83;;
65461;SDS011;53236;43.666;18.444;2023-08-31T08:25:59;6.28;;;2.83;;
65461;SDS011;53236;43.666;18.444;2023-08-31T08:28:25;7.10;;;2.47;;
65461;SDS011;53236;43.666;18.444;2023-08-31T08:30:51;4.22;;;2.22;;
65461;SDS011;53236;43.666;18.444;2023-08-31T08:33:17;4.32;;;2.47;;
65461;SDS011;53236;43.666;18.444;2023-08-31T08:35:43;5.68;;;2.47;;
65461;SDS011;53236;43.666;18.444;2023-08-31T08:38:09;5.82;;;2.25;;
65461;SDS011;53236;43.666;18.444;2023-08-31T08:40:35;3.72;;;2.10;;
65461;SDS011;53236;43.666;18.444;2023-08-31T08:43:01;3.95;;;2.15;;
65461;SDS011;53236;43.666;18.444;2023-08-31T08:45:30;5.00;;;1.77;;
65461;SDS011;53236;43.666;18.444;2023-08-31T08:48:05;2.92;;;1.67;;
65461;SDS011;53236;43.666;18.444;2023-08-31T08:50:32;3.08;;;1.40;;
65461;SDS011;53236;43.666;18.444;2023-08-31T08:52:59;5.60;;;1.92;;
65461;SDS011;53236;43.666;18.444;2023-08-31T08:55:29;4.07;;;1.48;;
65461;SDS011;53236;43.666;18.444;2023-08-31T08:57:55;6.50;;;2.08;;
65461;SDS011;53236;43.666;18.444;2023-08-31T09:00:23;4.18;;;1.83;;
65461;SDS011;53236;43.666;18.444;2023-08-31T09:02:49;3.92;;;1.83;;
65461;SDS011;53236;43.666;18.444;2023-08-31T09:05:15;3.60;;;1.92;;
65461;SDS011;53236;43.666;18.444;2023-08-31T09:08:03;4.60;;;2.00;;
65461;SDS011;53236;43.666;18.444;2023-08-31T09:10:40;5.15;;;2.10;;
65461;SDS011;53236;43.666;18.444;2023-08-31T09:13:14;3.85;;;1.67;;
65461;SDS011;53236;43.666;18.444;2023-08-31T09:15:47;3.85;;;1.60;;
65461;SDS011;53236;43.666;18.444;2023-08-31T09:18:17;3.67;;;1.60;;
65461;SDS011;53236;43.666;18.444;2023-08-31T09:20:47;3.72;;;2.00;;
65461;SDS011;53236;43.666;18.444;2023-08-31T09:23:14;6.82;;;2.25;;
65461;SDS011;53236;43.666;18.444;2023-08-31T09:25:47;5.32;;;2.00;;
65461;SDS011;53236;43.666;18.444;2023-08-31T09:28:15;3.30;;;1.88;;
65461;SDS011;53236;43.666;18.444;2023-08-31T09:30:42;3.67;;;2.00;;
65461;SDS011;53236;43.666;18.444;2023-08-31T09:33:09;3.35;;;1.77;;
65461;SDS011;53236;43.666;18.444;2023-08-31T09:35:38;5.40;;;2.00;;
65461;SDS011;53236;43.666;18.444;2023-08-31T09:38:15;6.13;;;2.05;;
65461;SDS011;53236;43.666;18.444;2023-08-31T09:40:41;4.93;;;2.17;;
65461;SDS011;53236;43.666;18.444;2023-08-31T09:43:07;6.70;;;2.33;;
65461;SDS011;53236;43.666;18.444;2023-08-31T09:45:34;3.85;;;1.80;;
65461;SDS011;53236;43.666;18.444;2023-08-31T09:48:01;5.07;;;2.10;;
65461;SDS011;53236;43.666;18.444;2023-08-31T09:50:28;3.95;;;1.90;;
65461;SDS011;53236;43.666;18.444;2023-08-31T09:52:56;4.43;;;1.80;;
65461;SDS011;53236;43.666;18.444;2023-08-31T09:55:27;4.50;;;2.15;;
65461;SDS011;53236;43.666;18.444;2023-08-31T09:57:55;4.25;;;1.70;;
65461;SDS011;53236;43.666;18.444;2023-08-31T10:00:31;5.65;;;1.92;;
65461;SDS011;53236;43.666;18.444;2023-08-31T10:03:02;5.75;;;2.00;;
65461;SDS011;53236;43.666;18.444;2023-08-31T10:05:28;4.45;;;1.92;;
65461;SDS011;53236;43.666;18.444;2023-08-31T10:07:56;7.25;;;2.05;;
65461;SDS011;53236;43.666;18.444;2023-08-31T10:10:22;3.90;;;2.05;;
65461;SDS011;53236;43.666;18.444;2023-08-31T10:12:49;4.32;;;1.88;;
65461;SDS011;53236;43.666;18.444;2023-08-31T10:15:16;4.18;;;1.98;;
65461;SDS011;53236;43.666;18.444;2023-08-31T10:17:43;6.32;;;2.00;;
65461;SDS011;53236;43.666;18.444;2023-08-31T10:20:09;4.68;;;1.88;;
65461;SDS011;53236;43.666;18.444;2023-08-31T10:22:37;4.13;;;1.90;;
65461;SDS011;53236;43.666;18.444;2023-08-31T10:25:03;3.55;;;1.63;;
65461;SDS011;53236;43.666;18.444;2023-08-31T10:27:36;5.40;;;1.80;;
65461;SDS011;53236;43.666;18.444;2023-08-31T10:36:08;5.32;;;1.50;;
65461;SDS011;53236;43.666;18.444;2023-08-31T10:38:27;4.32;;;1.50;;
65461;SDS011;53236;43.666;18.444;2023-08-31T10:43:48;4.67;;;1.63;;
65461;SDS011;53236;43.666;18.444;2023-08-31T10:46:25;6.75;;;1.60;;
65461;SDS011;53236;43.666;18.444;2023-08-31T10:48:54;3.17;;;1.33;;
65461;SDS011;53236;43.666;18.444;2023-08-31T10:51:24;5.18;;;1.70;;
65461;SDS011;53236;43.666;18.444;2023-08-31T10:54:04;2.77;;;1.40;;
65461;SDS011;53236;43.666;18.444;2023-08-31T10:56:31;4.35;;;1.40;;
65461;SDS011;53236;43.666;18.444;2023-08-31T10:58:58;4.25;;;1.40;;
65461;SDS011;53236;43.666;18.444;2023-08-31T11:04:19;3.83;;;1.48;;
65461;SDS011;53236;43.666;18.444;2023-08-31T11:06:46;7.07;;;1.70;;
65461;SDS011;53236;43.666;18.444;2023-08-31T11:09:20;3.85;;;1.40;;
65461;SDS011;53236;43.666;18.444;2023-08-31T11:11:47;3.40;;;1.50;;
65461;SDS011;53236;43.666;18.444;2023-08-31T11:14:16;4.05;;;1.42;;
65461;SDS011;53236;43.666;18.444;2023-08-31T11:16:42;3.25;;;1.23;;
65461;SDS011;53236;43.666;18.444;2023-08-31T11:19:09;3.58;;;1.63;;
65461;SDS011;53236;43.666;18.444;2023-08-31T11:21:36;7.72;;;1.80;;
65461;SDS011;53236;43.666;18.444;2023-08-31T11:24:03;4.97;;;1.52;;
65461;SDS011;53236;43.666;18.444;2023-08-31T11:26:29;3.63;;;1.48;;
65461;SDS011;53236;43.666;18.444;2023-08-31T11:28:56;4.47;;;1.08;;
65461;SDS011;53236;43.666;18.444;2023-08-31T11:31:26;3.35;;;1.23;;
65461;SDS011;53236;43.666;18.444;2023-08-31T11:33:52;4.13;;;1.20;;
65461;SDS011;53236;43.666;18.444;2023-08-31T11:36:21;2.42;;;1.10;;
65461;SDS011;53236;43.666;18.444;2023-08-31T11:38:49;11.55;;;1.65;;
65461;SDS011;53236;43.666;18.444;2023-08-31T11:41:16;4.57;;;1.58;;
65461;SDS011;53236;43.666;18.444;2023-08-31T11:43:42;2.33;;;0.90;;
65461;SDS011;53236;43.666;18.444;2023-08-31T11:46:08;4.03;;;1.60;;
65461;SDS011;53236;43.666;18.444;2023-08-31T11:48:34;2.83;;;1.50;;
65461;SDS011;53236;43.666;18.444;2023-08-31T11:51:00;6.10;;;1.40;;
65461;SDS011;53236;43.666;18.444;2023-08-31T11:53:27;2.75;;;1.10;;
65461;SDS011;53236;43.666;18.444;2023-08-31T11:55:54;4.20;;;1.35;;
65461;SDS011;53236;43.666;18.444;2023-08-31T11:58:20;2.95;;;1.30;;
65461;SDS011;53236;43.666;18.444;2023-08-31T12:00:54;3.30;;;1.30;;
65461;SDS011;53236;43.666;18.444;2023-08-31T12:03:21;3.15;;;1.48;;
65461;SDS011;53236;43.666;18.444;2023-08-31T12:05:47;3.40;;;1.00;;
65461;SDS011;53236;43.666;18.444;2023-08-31T12:08:16;2.97;;;1.20;;
65461;SDS011;53236;43.666;18.444;2023-08-31T12:10:52;2.92;;;1.20;;
65461;SDS011;53236;43.666;18.444;2023-08-31T12:13:18;3.13;;;1.33;;
65461;SDS011;53236;43.666;18.444;2023-08-31T12:15:44;2.70;;;1.27;;
65461;SDS011;53236;43.666;18.444;2023-08-31T12:18:10;3.05;;;1.38;;
65461;SDS011;53236;43.666;18.444;2023-08-31T12:20:47;3.03;;;1.25;;
65461;SDS011;53236;43.666;18.444;2023-08-31T12:23:16;3.83;;;1.38;;
65461;SDS011;53236;43.666;18.444;2023-08-31T12:25:49;2.47;;;1.10;;
65461;SDS011;53236;43.666;18.444;2023-08-31T12:28:20;2.47;;;0.93;;
65461;SDS011;53236;43.666;18.444;2023-08-31T12:30:50;1.92;;;1.00;;
65461;SDS011;53236;43.666;18.444;2023-08-31T12:33:17;5.63;;;1.52;;
65461;SDS011;53236;43.666;18.444;2023-08-31T12:35:44;2.90;;;1.25;;
65461;SDS011;53236;43.666;18.444;2023-08-31T12:38:10;2.95;;;1.42;;
65461;SDS011;53236;43.666;18.444;2023-08-31T12:40:37;3.33;;;1.10;;
65461;SDS011;53236;43.666;18.444;2023-08-31T12:43:06;3.95;;;1.45;;
65461;SDS011;53236;43.666;18.444;2023-08-31T12:45:32;3.20;;;1.30;;
65461;SDS011;53236;43.666;18.444;2023-08-31T12:47:58;2.70;;;1.25;;
65461;SDS011;53236;43.666;18.444;2023-08-31T12:50:24;3.72;;;1.30;;
65461;SDS011;53236;43.666;18.444;2023-08-31T12:52:50;2.67;;;0.93;;
65461;SDS011;53236;43.666;18.444;2023-08-31T12:55:16;3.72;;;1.17;;
65461;SDS011;53236;43.666;18.444;2023-08-31T12:57:42;2.55;;;1.00;;
65461;SDS011;53236;43.666;18.444;2023-08-31T13:00:08;3.22;;;1.17;;
65461;SDS011;53236;43.666;18.444;2023-08-31T13:02:39;3.03;;;1.27;;
65461;SDS011;53236;43.666;18.444;2023-08-31T13:05:06;3.15;;;1.20;;
65461;SDS011;53236;43.666;18.444;2023-08-31T13:07:33;2.45;;;0.88;;
65461;SDS011;53236;43.666;18.444;2023-08-31T13:10:00;2.25;;;1.15;;
65461;SDS011;53236;43.666;18.444;2023-08-31T13:12:29;2.83;;;1.25;;
65461;SDS011;53236;43.666;18.444;2023-08-31T13:14:55;2.53;;;1.15;;
65461;SDS011;53236;43.666;18.444;2023-08-31T13:17:22;3.30;;;1.30;;
65461;SDS011;53236;43.666;18.444;2023-08-31T13:19:52;5.63;;;1.30;;
65461;SDS011;53236;43.666;18.444;2023-08-31T13:22:18;3.47;;;1.02;;
65461;SDS011;53236;43.666;18.444;2023-08-31T13:24:44;3.28;;;0.93;;
65461;SDS011;53236;43.666;18.444;2023-08-31T13:27:10;2.85;;;1.10;;
65461;SDS011;53236;43.666;18.444;2023-08-31T13:29:36;2.80;;;1.05;;
65461;SDS011;53236;43.666;18.444;2023-08-31T13:32:01;2.47;;;1.10;;
65461;SDS011;53236;43.666;18.444;2023-08-31T13:34:28;2.35;;;0.82;;
65461;SDS011;53236;43.666;18.444;2023-08-31T13:36:54;2.70;;;1.10;;
65461;SDS011;53236;43.666;18.444;2023-08-31T13:39:21;5.45;;;1.10;;
65461;SDS011;53236;43.666;18.444;2023-08-31T13:41:49;3.90;;;0.90;;
65461;SDS011;53236;43.666;18.444;2023-08-31T13:44:16;3.40;;;1.20;;
65461;SDS011;53236;43.666;18.444;2023-08-31T13:46:43;2.47;;;0.90;;
65461;SDS011;53236;43.666;18.444;2023-08-31T13:49:08;3.17;;;1.08;;
65461;SDS011;53236;43.666;18.444;2023-08-31T13:51:34;2.13;;;0.98;;
65461;SDS011;53236;43.666;18.444;2023-08-31T13:54:01;3.45;;;1.23;;
65461;SDS011;53236;43.666;18.444;2023-08-31T13:56:28;1.40;;;0.88;;
65461;SDS011;53236;43.666;18.444;2023-08-31T13:58:54;3.40;;;1.08;;
65461;SDS011;53236;43.666;18.444;2023-08-31T14:01:20;3.55;;;1.00;;
65461;SDS011;53236;43.666;18.444;2023-08-31T14:03:46;1.98;;;1.00;;
65461;SDS011;53236;43.666;18.444;2023-08-31T14:06:12;2.58;;;1.10;;
65461;SDS011;53236;43.666;18.444;2023-08-31T14:08:38;3.15;;;1.02;;
65461;SDS011;53236;43.666;18.444;2023-08-31T14:11:05;4.95;;;1.13;;
65461;SDS011;53236;43.666;18.444;2023-08-31T14:13:31;4.93;;;1.60;;
65461;SDS011;53236;43.666;18.444;2023-08-31T14:15:57;3.28;;;1.10;;
65461;SDS011;53236;43.666;18.444;2023-08-31T14:18:25;2.67;;;1.10;;
65461;SDS011;53236;43.666;18.444;2023-08-31T14:20:53;2.88;;;1.20;;
65461;SDS011;53236;43.666;18.444;2023-08-31T14:23:19;3.33;;;1.40;;
65461;SDS011;53236;43.666;18.444;2023-08-31T14:25:45;3.42;;;1.05;;
65461;SDS011;53236;43.666;18.444;2023-08-31T14:28:11;1.85;;;0.80;;
65461;SDS011;53236;43.666;18.444;2023-08-31T14:30:37;4.72;;;2.00;;
65461;SDS011;53236;43.666;18.444;2023-08-31T14:33:03;2.42;;;1.33;;
65461;SDS011;53236;43.666;18.444;2023-08-31T14:35:29;1.98;;;0.90;;
65461;SDS011;53236;43.666;18.444;2023-08-31T14:37:55;3.75;;;1.08;;
65461;SDS011;53236;43.666;18.444;2023-08-31T14:40:21;4.35;;;1.20;;
65461;SDS011;53236;43.666;18.444;2023-08-31T14:42:47;3.13;;;0.90;;
65461;SDS011;53236;43.666;18.444;2023-08-31T14:45:13;2.53;;;0.93;;
65461;SDS011;53236;43.666;18.444;2023-08-31T14:47:39;4.68;;;0.98;;
65461;SDS011;53236;43.666;18.444;2023-08-31T14:50:04;3.20;;;1.10;;
65461;SDS011;53236;43.666;18.444;2023-08-31T14:52:31;4.70;;;1.05;;
65461;SDS011;53236;43.666;18.444;2023-08-31T14:54:56;2.90;;;1.00;;
65461;SDS011;53236;43.666;18.444;2023-08-31T14:57:22;2.22;;;1.13;;
65461;SDS011;53236;43.666;18.444;2023-08-31T14:59:48;1.88;;;0.80;;
65461;SDS011;53236;43.666;18.444;2023-08-31T15:02:18;2.03;;;0.98;;
65461;SDS011;53236;43.666;18.444;2023-08-31T15:04:50;5.10;;;1.10;;
65461;SDS011;53236;43.666;18.444;2023-08-31T15:07:16;2.75;;;1.40;;
65461;SDS011;53236;43.666;18.444;2023-08-31T15:09:42;2.58;;;1.10;;